Impacts METAR Board INFO
IDs:

KPDX - Portland Intl Arpt, OR, US

Updated at: 2110 UTC 16 Jan 2018
Potential Impact None Slight Moderate High
Time16/09Z 16/10Z 16/11Z 16/12Z 16/13Z 16/14Z 16/15Z 16/16Z 16/17Z 16/18Z 16/19Z 16/20Z 16/21Z
VIS10 10 10 10 10 10 10 10 10 10 10 10 10
CIG60 31 41 39 22 16 110 60 55 -- 250 250 55
CoverOVCOVCOVCOVCOVCOVCBKNBKNBKNFEWBKNBKNBKN
FltCatVFRVFRVFRVFRMVFRMVFRVFRVFRVFRVFRVFRVFRVFR
WX-RA-------RA----------------
WDir110110120120110100110130120140110120110
WSpd13 15 13 12 13 9 6 8 8 7 12 9 8
WGst-- -- -- -- -- -- -- -- -- -- -- -- --
Raw hourly METARs
KPDX 160853Z 11013KT 10SM -RA BKN060 OVC075 07/06 A3007 RMK AO2 RAB07 SLP181 P0001 60005 T00720056 51020 $
KPDX 160953Z 11015KT 10SM BKN031 OVC075 07/05 A3008 RMK AO2 RAE37 SLP184 P0001 T00670050 $
KPDX 161053Z 12013KT 10SM SCT033 OVC041 07/05 A3010 RMK AO2 SLP191 T00670050 $
KPDX 161153Z 12012KT 10SM BKN039 OVC070 07/05 A3011 RMK AO2 SLP196 60006 70010 T00720050 10083 20067 53015 $
KPDX 161303Z 11013KT 10SM -RA BKN022 BKN032 OVC085 07/06 A3014 RMK AO2 RAB02 P0000 T00720056 $
KPDX 161353Z 10009KT 10SM BKN016 BKN023 OVC032 07/06 A3016 RMK AO2 RAB02E34 SLP213 P0000 T00720056 $
KPDX 161453Z 11006KT 10SM FEW015 SCT060 BKN110 07/05 A3018 RMK AO2 SLP220 60002 T00670050 53024
KPDX 161553Z 13008KT 10SM FEW015 BKN060 BKN110 06/05 A3020 RMK AO2 SLP225 T00610050
KPDX 161653Z 12008KT 10SM FEW018 BKN055 08/06 A3021 RMK AO2 SLP229 T00780061
KPDX 161753Z 14007KT 10SM FEW037 09/07 A3025 RMK AO2 SLP244 60002 T00890067 10089 20061 53024
KPDX 161853Z 11012KT 10SM FEW015 FEW035 SCT050 BKN250 09/07 A3027 RMK AO2 SLP248 T00940067
KPDX 161953Z 12009KT 10SM FEW028 SCT050 BKN250 11/08 A3027 RMK AO2 SLP248 T01110078
KPDX 162053Z 11008KT 10SM SCT030 BKN055 BKN200 11/07 A3027 RMK AO2 SLP249 T01110067 51005